sensor_id;sensor_type;location;lat;lon;timestamp;pressure;altitude;pressure_sealevel;temperature;humidity
76128;BME280;64873;50.102;14.434;2023-05-07T00:00:16;99613.91;;;11.02;73.14
76128;BME280;64873;50.102;14.434;2023-05-07T00:02:44;99610.06;;;10.91;73.48
76128;BME280;64873;50.102;14.434;2023-05-07T00:05:10;99598.31;;;10.99;73.44
76128;BME280;64873;50.102;14.434;2023-05-07T00:07:35;99609.84;;;10.92;73.57
76128;BME280;64873;50.102;14.434;2023-05-07T00:10:01;99618.81;;;11.18;72.54
76128;BME280;64873;50.102;14.434;2023-05-07T00:12:27;99603.00;;;11.10;72.29
76128;BME280;64873;50.102;14.434;2023-05-07T00:14:52;99600.72;;;11.13;72.25
76128;BME280;64873;50.102;14.434;2023-05-07T00:17:17;99608.16;;;11.05;72.68
76128;BME280;64873;50.102;14.434;2023-05-07T00:19:43;99612.72;;;10.98;73.02
76128;BME280;64873;50.102;14.434;2023-05-07T00:22:08;99614.31;;;11.12;72.91
76128;BME280;64873;50.102;14.434;2023-05-07T00:24:33;99614.75;;;11.09;72.63
76128;BME280;64873;50.102;14.434;2023-05-07T00:26:59;99621.94;;;11.02;73.13
76128;BME280;64873;50.102;14.434;2023-05-07T00:29:25;99615.75;;;11.08;73.52
76128;BME280;64873;50.102;14.434;2023-05-07T00:31:50;99614.75;;;11.02;73.61
76128;BME280;64873;50.102;14.434;2023-05-07T00:34:16;99599.31;;;11.04;73.43
76128;BME280;64873;50.102;14.434;2023-05-07T00:36:41;99614.16;;;10.93;73.83
76128;BME280;64873;50.102;14.434;2023-05-07T00:39:07;99604.88;;;10.96;73.79
76128;BME280;64873;50.102;14.434;2023-05-07T00:41:32;99609.81;;;10.99;74.16
76128;BME280;64873;50.102;14.434;2023-05-07T00:43:58;99616.00;;;11.00;73.74
76128;BME280;64873;50.102;14.434;2023-05-07T00:46:23;99620.13;;;10.89;74.07
76128;BME280;64873;50.102;14.434;2023-05-07T00:48:52;99614.75;;;10.95;73.86
76128;BME280;64873;50.102;14.434;2023-05-07T00:51:18;99597.56;;;10.85;73.92
76128;BME280;64873;50.102;14.434;2023-05-07T00:53:45;99611.09;;;10.97;73.87
76128;BME280;64873;50.102;14.434;2023-05-07T00:56:10;99603.28;;;10.88;74.19
76128;BME280;64873;50.102;14.434;2023-05-07T00:58:37;99615.19;;;10.92;73.97
76128;BME280;64873;50.102;14.434;2023-05-07T01:01:02;99600.78;;;10.93;73.90
76128;BME280;64873;50.102;14.434;2023-05-07T01:03:28;99615.94;;;11.13;73.35
76128;BME280;64873;50.102;14.434;2023-05-07T01:05:54;99619.25;;;11.15;72.96
76128;BME280;64873;50.102;14.434;2023-05-07T01:08:22;99609.38;;;11.15;72.70
76128;BME280;64873;50.102;14.434;2023-05-07T01:10:47;99621.25;;;11.19;72.65
76128;BME280;64873;50.102;14.434;2023-05-07T01:13:14;99612.66;;;11.11;72.67
76128;BME280;64873;50.102;14.434;2023-05-07T01:15:40;99625.00;;;11.12;72.77
76128;BME280;64873;50.102;14.434;2023-05-07T01:18:06;99612.22;;;11.14;71.43
76128;BME280;64873;50.102;14.434;2023-05-07T01:20:32;99621.47;;;11.18;71.25
76128;BME280;64873;50.102;14.434;2023-05-07T01:22:58;99624.97;;;11.18;71.23
76128;BME280;64873;50.102;14.434;2023-05-07T01:25:25;99621.25;;;11.19;71.15
76128;BME280;64873;50.102;14.434;2023-05-07T01:27:51;99625.44;;;11.09;71.11
76128;BME280;64873;50.102;14.434;2023-05-07T01:30:18;99632.22;;;11.11;71.45
76128;BME280;64873;50.102;14.434;2023-05-07T01:32:52;99622.44;;;11.30;70.09
76128;BME280;64873;50.102;14.434;2023-05-07T01:35:26;99632.13;;;11.31;69.58
76128;BME280;64873;50.102;14.434;2023-05-07T01:37:52;99614.69;;;11.22;70.12
76128;BME280;64873;50.102;14.434;2023-05-07T01:40:18;99629.69;;;11.23;70.25
76128;BME280;64873;50.102;14.434;2023-05-07T01:42:44;99630.91;;;11.27;70.01
76128;BME280;64873;50.102;14.434;2023-05-07T01:45:11;99624.16;;;11.18;70.67
76128;BME280;64873;50.102;14.434;2023-05-07T01:47:37;99613.66;;;11.23;70.81
76128;BME280;64873;50.102;14.434;2023-05-07T01:50:05;99626.22;;;11.16;71.24
76128;BME280;64873;50.102;14.434;2023-05-07T01:52:31;99630.94;;;11.14;70.71
76128;BME280;64873;50.102;14.434;2023-05-07T01:54:56;99620.69;;;11.11;70.73
76128;BME280;64873;50.102;14.434;2023-05-07T01:57:22;99623.13;;;11.19;70.88
76128;BME280;64873;50.102;14.434;2023-05-07T01:59:47;99625.81;;;11.12;70.46
76128;BME280;64873;50.102;14.434;2023-05-07T02:02:13;99638.13;;;11.27;69.76
76128;BME280;64873;50.102;14.434;2023-05-07T02:04:38;99626.19;;;11.23;69.73
76128;BME280;64873;50.102;14.434;2023-05-07T02:07:03;99637.72;;;11.23;68.81
76128;BME280;64873;50.102;14.434;2023-05-07T02:09:29;99640.19;;;11.25;68.94
76128;BME280;64873;50.102;14.434;2023-05-07T02:11:55;99635.69;;;11.12;69.98
76128;BME280;64873;50.102;14.434;2023-05-07T02:14:20;99623.16;;;11.06;70.14
76128;BME280;64873;50.102;14.434;2023-05-07T02:16:46;99635.53;;;11.00;69.42
76128;BME280;64873;50.102;14.434;2023-05-07T02:19:11;99617.22;;;11.04;69.46
76128;BME280;64873;50.102;14.434;2023-05-07T02:21:36;99632.19;;;11.18;69.44
76128;BME280;64873;50.102;14.434;2023-05-07T02:24:02;99630.31;;;11.18;69.79
76128;BME280;64873;50.102;14.434;2023-05-07T02:26:27;99624.59;;;11.15;69.32
76128;BME280;64873;50.102;14.434;2023-05-07T02:28:53;99622.28;;;11.18;69.27
76128;BME280;64873;50.102;14.434;2023-05-07T02:31:19;99630.13;;;11.20;69.18
76128;BME280;64873;50.102;14.434;2023-05-07T02:33:44;99628.13;;;11.09;69.35
76128;BME280;64873;50.102;14.434;2023-05-07T02:36:11;99626.63;;;11.13;69.14
76128;BME280;64873;50.102;14.434;2023-05-07T02:38:37;99635.91;;;11.10;69.09
76128;BME280;64873;50.102;14.434;2023-05-07T02:41:02;99620.47;;;11.12;68.55
76128;BME280;64873;50.102;14.434;2023-05-07T02:43:28;99619.44;;;11.13;69.10
76128;BME280;64873;50.102;14.434;2023-05-07T02:46:03;99622.13;;;11.07;70.11
76128;BME280;64873;50.102;14.434;2023-05-07T02:48:28;99637.38;;;11.00;71.00
76128;BME280;64873;50.102;14.434;2023-05-07T02:50:54;99641.91;;;10.99;71.26
76128;BME280;64873;50.102;14.434;2023-05-07T02:53:19;99640.84;;;11.07;70.93
76128;BME280;64873;50.102;14.434;2023-05-07T02:55:44;99626.31;;;10.89;71.37
76128;BME280;64873;50.102;14.434;2023-05-07T02:58:10;99635.94;;;11.04;71.13
76128;BME280;64873;50.102;14.434;2023-05-07T03:00:35;99637.78;;;11.10;70.82
76128;BME280;64873;50.102;14.434;2023-05-07T03:03:01;99621.94;;;11.02;70.60
76128;BME280;64873;50.102;14.434;2023-05-07T03:05:26;99639.22;;;11.06;70.97
76128;BME280;64873;50.102;14.434;2023-05-07T03:07:51;99642.31;;;11.09;70.89
76128;BME280;64873;50.102;14.434;2023-05-07T03:10:17;99631.84;;;10.94;70.91
76128;BME280;64873;50.102;14.434;2023-05-07T03:12:43;99641.06;;;11.12;70.72
76128;BME280;64873;50.102;14.434;2023-05-07T03:15:09;99639.66;;;10.96;70.64
76128;BME280;64873;50.102;14.434;2023-05-07T03:17:35;99641.50;;;10.95;70.89
76128;BME280;64873;50.102;14.434;2023-05-07T03:20:01;99637.19;;;10.94;70.70
76128;BME280;64873;50.102;14.434;2023-05-07T03:22:26;99639.88;;;10.94;70.20
76128;BME280;64873;50.102;14.434;2023-05-07T03:24:52;99626.06;;;11.04;70.11
76128;BME280;64873;50.102;14.434;2023-05-07T03:27:17;99636.13;;;11.09;68.97
76128;BME280;64873;50.102;14.434;2023-05-07T03:29:42;99647.84;;;11.08;69.14
76128;BME280;64873;50.102;14.434;2023-05-07T03:32:08;99638.22;;;10.93;69.50
76128;BME280;64873;50.102;14.434;2023-05-07T03:34:33;99636.16;;;10.95;69.55
76128;BME280;64873;50.102;14.434;2023-05-07T03:36:59;99641.88;;;11.06;69.62
76128;BME280;64873;50.102;14.434;2023-05-07T03:39:24;99654.69;;;10.97;69.53
76128;BME280;64873;50.102;14.434;2023-05-07T03:41:50;99639.72;;;10.76;69.92
76128;BME280;64873;50.102;14.434;2023-05-07T03:44:15;99649.16;;;10.72;70.33
76128;BME280;64873;50.102;14.434;2023-05-07T03:46:40;99639.75;;;10.63;70.63
76128;BME280;64873;50.102;14.434;2023-05-07T03:49:11;99651.66;;;10.74;70.81
76128;BME280;64873;50.102;14.434;2023-05-07T03:51:37;99651.03;;;10.65;71.29
76128;BME280;64873;50.102;14.434;2023-05-07T03:54:02;99649.97;;;10.73;70.82
76128;BME280;64873;50.102;14.434;2023-05-07T03:56:28;99651.00;;;10.78;70.37
76128;BME280;64873;50.102;14.434;2023-05-07T03:59:00;99640.94;;;10.80;70.47
76128;BME280;64873;50.102;14.434;2023-05-07T04:01:25;99628.63;;;10.59;70.72
76128;BME280;64873;50.102;14.434;2023-05-07T04:03:51;99621.03;;;10.63;70.01
76128;BME280;64873;50.102;14.434;2023-05-07T04:06:16;99634.41;;;10.63;69.53
76128;BME280;64873;50.102;14.434;2023-05-07T04:08:45;99639.91;;;10.81;68.95
76128;BME280;64873;50.102;14.434;2023-05-07T04:11:10;99646.47;;;10.79;69.05
76128;BME280;64873;50.102;14.434;2023-05-07T04:13:36;99653.03;;;10.89;68.42
76128;BME280;64873;50.102;14.434;2023-05-07T04:16:02;99642.81;;;10.66;68.65
76128;BME280;64873;50.102;14.434;2023-05-07T04:18:28;99648.56;;;10.63;68.83
76128;BME280;64873;50.102;14.434;2023-05-07T04:20:54;99663.34;;;10.73;68.87
76128;BME280;64873;50.102;14.434;2023-05-07T04:23:20;99655.16;;;10.67;68.58
76128;BME280;64873;50.102;14.434;2023-05-07T04:25:48;99642.44;;;10.56;69.03
76128;BME280;64873;50.102;14.434;2023-05-07T04:28:13;99668.28;;;10.76;68.38
76128;BME280;64873;50.102;14.434;2023-05-07T04:30:39;99679.78;;;10.89;68.10
76128;BME280;64873;50.102;14.434;2023-05-07T04:33:07;99676.06;;;10.90;67.75
76128;BME280;64873;50.102;14.434;2023-05-07T04:35:33;99678.97;;;10.82;67.67
76128;BME280;64873;50.102;14.434;2023-05-07T04:37:59;99672.00;;;10.81;67.39
76128;BME280;64873;50.102;14.434;2023-05-07T04:40:25;99675.69;;;10.80;67.44
76128;BME280;64873;50.102;14.434;2023-05-07T04:42:50;99676.31;;;10.82;67.54
76128;BME280;64873;50.102;14.434;2023-05-07T04:45:16;99682.22;;;11.04;66.99
76128;BME280;64873;50.102;14.434;2023-05-07T04:47:42;99683.44;;;11.15;66.65
76128;BME280;64873;50.102;14.434;2023-05-07T04:50:09;99682.22;;;11.11;66.71
76128;BME280;64873;50.102;14.434;2023-05-07T04:52:34;99682.22;;;11.04;67.09
76128;BME280;64873;50.102;14.434;2023-05-07T04:55:00;99682.25;;;10.84;67.45
76128;BME280;64873;50.102;14.434;2023-05-07T04:57:26;99683.09;;;10.91;67.60
76128;BME280;64873;50.102;14.434;2023-05-07T04:59:53;99682.66;;;10.88;67.54
76128;BME280;64873;50.102;14.434;2023-05-07T05:02:18;99699.53;;;10.88;67.76
76128;BME280;64873;50.102;14.434;2023-05-07T05:04:44;99699.13;;;10.91;67.46
76128;BME280;64873;50.102;14.434;2023-05-07T05:07:09;99695.44;;;10.79;67.45
76128;BME280;64873;50.102;14.434;2023-05-07T05:09:35;99699.13;;;10.78;67.63
76128;BME280;64873;50.102;14.434;2023-05-07T05:12:01;99695.38;;;11.06;67.02
76128;BME280;64873;50.102;14.434;2023-05-07T05:14:32;99694.53;;;11.12;66.58
76128;BME280;64873;50.102;14.434;2023-05-07T05:17:01;99704.03;;;11.14;66.47
76128;BME280;64873;50.102;14.434;2023-05-07T05:19:29;99689.44;;;11.04;66.67
76128;BME280;64873;50.102;14.434;2023-05-07T05:21:57;99703.22;;;10.94;66.72
76128;BME280;64873;50.102;14.434;2023-05-07T05:24:23;99701.16;;;10.89;66.87
76128;BME280;64873;50.102;14.434;2023-05-07T05:26:49;99711.84;;;10.89;66.93
76128;BME280;64873;50.102;14.434;2023-05-07T05:29:18;99711.25;;;10.87;66.88
76128;BME280;64873;50.102;14.434;2023-05-07T05:31:43;99707.13;;;11.05;66.45
76128;BME280;64873;50.102;14.434;2023-05-07T05:34:09;99699.13;;;10.98;66.54
76128;BME280;64873;50.102;14.434;2023-05-07T05:36:34;99708.31;;;11.22;66.14
76128;BME280;64873;50.102;14.434;2023-05-07T05:39:04;99707.47;;;11.28;66.05
76128;BME280;64873;50.102;14.434;2023-05-07T05:41:30;99712.81;;;11.28;65.63
76128;BME280;64873;50.102;14.434;2023-05-07T05:43:56;99705.41;;;11.30;65.60
76128;BME280;64873;50.102;14.434;2023-05-07T05:46:22;99706.00;;;11.39;65.24
76128;BME280;64873;50.102;14.434;2023-05-07T05:48:50;99708.41;;;11.54;64.87
76128;BME280;64873;50.102;14.434;2023-05-07T05:51:16;99716.88;;;11.51;64.88
76128;BME280;64873;50.102;14.434;2023-05-07T05:53:47;99709.19;;;11.61;64.33
76128;BME280;64873;50.102;14.434;2023-05-07T05:56:15;99712.50;;;11.63;64.30
76128;BME280;64873;50.102;14.434;2023-05-07T05:58:41;99712.56;;;11.50;64.78
76128;BME280;64873;50.102;14.434;2023-05-07T06:01:07;99707.84;;;11.38;64.91
76128;BME280;64873;50.102;14.434;2023-05-07T06:03:32;99702.31;;;11.33;65.03
76128;BME280;64873;50.102;14.434;2023-05-07T06:05:58;99718.78;;;11.30;65.15
76128;BME280;64873;50.102;14.434;2023-05-07T06:08:33;99715.25;;;11.36;64.77
76128;BME280;64873;50.102;14.434;2023-05-07T06:10:58;99719.22;;;11.27;64.85
76128;BME280;64873;50.102;14.434;2023-05-07T06:13:25;99728.88;;;11.28;65.02
76128;BME280;64873;50.102;14.434;2023-05-07T06:15:50;99731.50;;;11.41;64.27
76128;BME280;64873;50.102;14.434;2023-05-07T06:18:16;99736.69;;;11.23;64.71
76128;BME280;64873;50.102;14.434;2023-05-07T06:20:42;99728.28;;;11.26;64.55
76128;BME280;64873;50.102;14.434;2023-05-07T06:23:10;99739.81;;;11.20;64.91
76128;BME280;64873;50.102;14.434;2023-05-07T06:25:36;99750.03;;;11.36;64.68
76128;BME280;64873;50.102;14.434;2023-05-07T06:28:04;99747.00;;;11.26;65.11
76128;BME280;64873;50.102;14.434;2023-05-07T06:30:30;99748.84;;;11.19;65.35
76128;BME280;64873;50.102;14.434;2023-05-07T06:32:56;99751.72;;;11.24;65.06
76128;BME280;64873;50.102;14.434;2023-05-07T06:35:21;99752.28;;;11.46;64.30
76128;BME280;64873;50.102;14.434;2023-05-07T06:37:52;99762.56;;;11.56;64.00
76128;BME280;64873;50.102;14.434;2023-05-07T06:40:18;99758.44;;;11.53;63.91
76128;BME280;64873;50.102;14.434;2023-05-07T06:42:44;99763.56;;;11.55;63.40
76128;BME280;64873;50.102;14.434;2023-05-07T06:45:10;99764.06;;;11.32;64.12
76128;BME280;64873;50.102;14.434;2023-05-07T06:47:35;99769.41;;;11.25;64.37
76128;BME280;64873;50.102;14.434;2023-05-07T06:50:01;99771.44;;;11.36;64.19
76128;BME280;64873;50.102;14.434;2023-05-07T06:52:27;99773.91;;;11.44;63.48
76128;BME280;64873;50.102;14.434;2023-05-07T06:54:53;99763.84;;;11.40;63.43
76128;BME280;64873;50.102;14.434;2023-05-07T06:57:18;99773.69;;;11.46;63.17
76128;BME280;64873;50.102;14.434;2023-05-07T06:59:44;99767.72;;;11.51;62.87
76128;BME280;64873;50.102;14.434;2023-05-07T07:02:10;99776.75;;;11.56;62.92
76128;BME280;64873;50.102;14.434;2023-05-07T07:04:35;99769.31;;;11.58;62.77
76128;BME280;64873;50.102;14.434;2023-05-07T07:07:01;99782.13;;;11.50;62.23
76128;BME280;64873;50.102;14.434;2023-05-07T07:09:26;99776.72;;;11.69;61.30
76128;BME280;64873;50.102;14.434;2023-05-07T07:11:52;99784.34;;;11.59;61.83
76128;BME280;64873;50.102;14.434;2023-05-07T07:14:20;99782.47;;;11.73;61.22
76128;BME280;64873;50.102;14.434;2023-05-07T07:16:49;99786.16;;;11.79;61.06
76128;BME280;64873;50.102;14.434;2023-05-07T07:19:14;99776.28;;;11.66;61.26
76128;BME280;64873;50.102;14.434;2023-05-07T07:21:41;99783.69;;;11.70;61.36
76128;BME280;64873;50.102;14.434;2023-05-07T07:24:07;99776.47;;;11.78;61.43
76128;BME280;64873;50.102;14.434;2023-05-07T07:26:32;99793.78;;;11.75;61.62
76128;BME280;64873;50.102;14.434;2023-05-07T07:29:00;99786.78;;;11.74;61.66
76128;BME280;64873;50.102;14.434;2023-05-07T07:31:26;99782.63;;;11.78;61.69
76128;BME280;64873;50.102;14.434;2023-05-07T07:33:51;99784.50;;;11.84;61.58
76128;BME280;64873;50.102;14.434;2023-05-07T07:36:17;99798.53;;;11.73;61.71
76128;BME280;64873;50.102;14.434;2023-05-07T07:38:43;99791.50;;;11.72;61.82
76128;BME280;64873;50.102;14.434;2023-05-07T07:41:09;99787.84;;;11.73;61.70
76128;BME280;64873;50.102;14.434;2023-05-07T07:43:34;99784.16;;;11.54;62.32
76128;BME280;64873;50.102;14.434;2023-05-07T07:46:01;99791.22;;;11.35;63.41
76128;BME280;64873;50.102;14.434;2023-05-07T07:48:26;99786.97;;;11.72;61.67
76128;BME280;64873;50.102;14.434;2023-05-07T07:50:55;99791.72;;;11.77;61.60
76128;BME280;64873;50.102;14.434;2023-05-07T07:53:24;99794.19;;;11.72;61.70
76128;BME280;64873;50.102;14.434;2023-05-07T07:55:49;99803.69;;;11.68;62.03
76128;BME280;64873;50.102;14.434;2023-05-07T07:58:15;99803.69;;;11.81;61.91
76128;BME280;64873;50.102;14.434;2023-05-07T08:00:40;99812.75;;;11.73;62.12
76128;BME280;64873;50.102;14.434;2023-05-07T08:03:09;99804.06;;;11.91;62.30
76128;BME280;64873;50.102;14.434;2023-05-07T08:05:35;99815.00;;;11.77;62.64
76128;BME280;64873;50.102;14.434;2023-05-07T08:08:07;99820.75;;;11.80;62.81
76128;BME280;64873;50.102;14.434;2023-05-07T08:10:33;99811.63;;;12.01;62.44
76128;BME280;64873;50.102;14.434;2023-05-07T08:13:00;99817.44;;;11.78;62.56
76128;BME280;64873;50.102;14.434;2023-05-07T08:15:26;99809.59;;;11.96;62.43
76128;BME280;64873;50.102;14.434;2023-05-07T08:17:51;99809.56;;;12.03;62.26
76128;BME280;64873;50.102;14.434;2023-05-07T08:20:16;99801.72;;;12.08;62.45
76128;BME280;64873;50.102;14.434;2023-05-07T08:22:42;99827.00;;;12.19;62.25
76128;BME280;64873;50.102;14.434;2023-05-07T08:25:08;99811.59;;;12.14;62.27
76128;BME280;64873;50.102;14.434;2023-05-07T08:27:34;99824.78;;;12.09;62.60
76128;BME280;64873;50.102;14.434;2023-05-07T08:29:59;99826.19;;;12.18;62.23
76128;BME280;64873;50.102;14.434;2023-05-07T08:32:27;99824.78;;;12.09;62.68
76128;BME280;64873;50.102;14.434;2023-05-07T08:34:53;99819.97;;;11.60;64.08
76128;BME280;64873;50.102;14.434;2023-05-07T08:37:21;99823.53;;;11.40;65.07
76128;BME280;64873;50.102;14.434;2023-05-07T08:39:47;99834.63;;;11.37;64.91
76128;BME280;64873;50.102;14.434;2023-05-07T08:42:15;99831.28;;;11.75;64.20
76128;BME280;64873;50.102;14.434;2023-05-07T08:44:45;99819.03;;;12.06;62.99
76128;BME280;64873;50.102;14.434;2023-05-07T08:47:13;99830.16;;;12.47;61.16
76128;BME280;64873;50.102;14.434;2023-05-07T08:49:39;99820.88;;;12.50;61.35
76128;BME280;64873;50.102;14.434;2023-05-07T08:52:06;99831.97;;;12.15;62.31
76128;BME280;64873;50.102;14.434;2023-05-07T08:54:32;99831.78;;;12.55;61.08
76128;BME280;64873;50.102;14.434;2023-05-07T08:56:59;99832.16;;;12.59;60.97
76128;BME280;64873;50.102;14.434;2023-05-07T08:59:25;99834.53;;;12.35;61.26
76128;BME280;64873;50.102;14.434;2023-05-07T09:01:51;99837.97;;;12.11;62.48
76128;BME280;64873;50.102;14.434;2023-05-07T09:04:19;99838.50;;;12.64;60.75
76128;BME280;64873;50.102;14.434;2023-05-07T09:06:47;99835.44;;;12.92;59.82
76128;BME280;64873;50.102;14.434;2023-05-07T09:09:17;99833.75;;;13.23;58.82
76128;BME280;64873;50.102;14.434;2023-05-07T09:11:44;99833.22;;;13.57;57.65
76128;BME280;64873;50.102;14.434;2023-05-07T09:14:12;99836.53;;;13.96;56.54
76128;BME280;64873;50.102;14.434;2023-05-07T09:16:38;99830.97;;;14.09;55.66
76128;BME280;64873;50.102;14.434;2023-05-07T09:19:07;99835.28;;;14.29;55.31
76128;BME280;64873;50.102;14.434;2023-05-07T09:21:35;99826.69;;;13.90;56.64
76128;BME280;64873;50.102;14.434;2023-05-07T09:24:01;99833.53;;;13.49;57.82
76128;BME280;64873;50.102;14.434;2023-05-07T09:26:26;99835.47;;;12.16;61.45
76128;BME280;64873;50.102;14.434;2023-05-07T09:28:53;99840.84;;;12.16;61.88
76128;BME280;64873;50.102;14.434;2023-05-07T09:31:19;99832.47;;;12.44;61.29
76128;BME280;64873;50.102;14.434;2023-05-07T09:33:45;99837.00;;;12.43;60.65
76128;BME280;64873;50.102;14.434;2023-05-07T09:36:10;99838.28;;;12.97;59.32
76128;BME280;64873;50.102;14.434;2023-05-07T09:38:38;99829.41;;;13.47;58.00
76128;BME280;64873;50.102;14.434;2023-05-07T09:41:08;99842.41;;;13.86;56.93
76128;BME280;64873;50.102;14.434;2023-05-07T09:43:35;99837.31;;;13.60;57.59
76128;BME280;64873;50.102;14.434;2023-05-07T09:46:20;99833.78;;;12.91;59.40
76128;BME280;64873;50.102;14.434;2023-05-07T09:48:52;99836.88;;;13.20;58.98
76128;BME280;64873;50.102;14.434;2023-05-07T09:51:41;99837.16;;;12.80;60.11
76128;BME280;64873;50.102;14.434;2023-05-07T09:54:12;99843.66;;;13.22;58.77
76128;BME280;64873;50.102;14.434;2023-05-07T09:56:37;99840.53;;;13.69;57.15
76128;BME280;64873;50.102;14.434;2023-05-07T09:59:07;99831.25;;;13.46;57.66
76128;BME280;64873;50.102;14.434;2023-05-07T10:01:36;99834.81;;;13.22;58.93
76128;BME280;64873;50.102;14.434;2023-05-07T10:04:02;99840.38;;;13.64;57.51
76128;BME280;64873;50.102;14.434;2023-05-07T10:06:34;99825.75;;;13.59;57.49
76128;BME280;64873;50.102;14.434;2023-05-07T10:09:02;99840.56;;;12.94;59.46
76128;BME280;64873;50.102;14.434;2023-05-07T10:11:28;99837.91;;;13.44;57.95
76128;BME280;64873;50.102;14.434;2023-05-07T10:13:54;99844.34;;;13.11;59.37
76128;BME280;64873;50.102;14.434;2023-05-07T10:16:23;99834.31;;;13.31;58.99
76128;BME280;64873;50.102;14.434;2023-05-07T10:18:51;99841.69;;;13.36;58.62
76128;BME280;64873;50.102;14.434;2023-05-07T10:21:18;99839.72;;;13.25;58.88
76128;BME280;64873;50.102;14.434;2023-05-07T10:23:53;99837.75;;;13.14;59.27
76128;BME280;64873;50.102;14.434;2023-05-07T10:26:23;99832.47;;;13.00;59.22
76128;BME280;64873;50.102;14.434;2023-05-07T10:28:54;99836.63;;;13.46;58.65
76128;BME280;64873;50.102;14.434;2023-05-07T10:31:48;99833.00;;;14.14;57.31
76128;BME280;64873;50.102;14.434;2023-05-07T10:34:32;99816.75;;;14.81;54.35
76128;BME280;64873;50.102;14.434;2023-05-07T10:37:01;99829.25;;;14.75;54.78
76128;BME280;64873;50.102;14.434;2023-05-07T10:39:28;99815.19;;;15.27;53.00
76128;BME280;64873;50.102;14.434;2023-05-07T10:41:54;99820.78;;;14.90;54.05
76128;BME280;64873;50.102;14.434;2023-05-07T10:44:29;99814.47;;;15.19;53.40
76128;BME280;64873;50.102;14.434;2023-05-07T10:49:36;99818.50;;;14.75;54.22
76128;BME280;64873;50.102;14.434;2023-05-07T10:52:18;99810.59;;;15.04;53.16
76128;BME280;64873;50.102;14.434;2023-05-07T10:59:57;99821.31;;;13.90;56.43
76128;BME280;64873;50.102;14.434;2023-05-07T11:02:23;99823.31;;;14.43;55.42
76128;BME280;64873;50.102;14.434;2023-05-07T11:05:20;99825.84;;;14.08;56.32
76128;BME280;64873;50.102;14.434;2023-05-07T11:08:04;99820.81;;;14.41;55.59
76128;BME280;64873;50.102;14.434;2023-05-07T11:10:49;99815.75;;;15.17;53.07
76128;BME280;64873;50.102;14.434;2023-05-07T11:13:16;99818.56;;;15.69;52.29
76128;BME280;64873;50.102;14.434;2023-05-07T11:15:48;99826.75;;;14.50;54.93
76128;BME280;64873;50.102;14.434;2023-05-07T11:18:16;99817.06;;;14.31;56.07
76128;BME280;64873;50.102;14.434;2023-05-07T11:28:37;99824.19;;;14.55;55.08
76128;BME280;64873;50.102;14.434;2023-05-07T11:31:03;99827.94;;;14.36;56.25
76128;BME280;64873;50.102;14.434;2023-05-07T11:33:30;99830.03;;;14.34;55.82
76128;BME280;64873;50.102;14.434;2023-05-07T11:35:56;99829.59;;;14.19;56.25
76128;BME280;64873;50.102;14.434;2023-05-07T11:38:22;99823.34;;;14.06;56.38
76128;BME280;64873;50.102;14.434;2023-05-07T11:40:52;99821.06;;;14.40;55.66
76128;BME280;64873;50.102;14.434;2023-05-07T11:43:17;99824.38;;;14.24;56.38
76128;BME280;64873;50.102;14.434;2023-05-07T11:45:47;99823.22;;;14.20;56.48
76128;BME280;64873;50.102;14.434;2023-05-07T11:48:14;99829.69;;;14.42;56.08
76128;BME280;64873;50.102;14.434;2023-05-07T11:50:53;99827.25;;;14.10;57.68
76128;BME280;64873;50.102;14.434;2023-05-07T11:53:20;99833.97;;;13.83;59.01
76128;BME280;64873;50.102;14.434;2023-05-07T11:55:55;99836.22;;;13.86;59.55
76128;BME280;64873;50.102;14.434;2023-05-07T11:58:22;99839.03;;;13.54;60.13
76128;BME280;64873;50.102;14.434;2023-05-07T12:00:49;99834.41;;;13.62;59.60
76128;BME280;64873;50.102;14.434;2023-05-07T12:03:17;99831.59;;;13.56;59.54
76128;BME280;64873;50.102;14.434;2023-05-07T12:05:47;99826.63;;;13.53;59.64
76128;BME280;64873;50.102;14.434;2023-05-07T12:08:17;99828.47;;;13.78;58.80
76128;BME280;64873;50.102;14.434;2023-05-07T12:10:44;99826.38;;;13.80;58.88
76128;BME280;64873;50.102;14.434;2023-05-07T12:13:23;99837.03;;;14.05;58.33
76128;BME280;64873;50.102;14.434;2023-05-07T12:15:52;99841.97;;;14.56;56.48
76128;BME280;64873;50.102;14.434;2023-05-07T12:18:18;99843.34;;;14.29;57.49
76128;BME280;64873;50.102;14.434;2023-05-07T12:20:44;99844.13;;;14.48;56.90
76128;BME280;64873;50.102;14.434;2023-05-07T12:23:10;99835.41;;;14.34;56.68
76128;BME280;64873;50.102;14.434;2023-05-07T12:25:38;99843.81;;;14.26;56.98
76128;BME280;64873;50.102;14.434;2023-05-07T12:28:04;99850.34;;;14.30;56.42
76128;BME280;64873;50.102;14.434;2023-05-07T12:30:37;99843.09;;;14.30;56.40
76128;BME280;64873;50.102;14.434;2023-05-07T12:33:03;99839.84;;;14.10;56.46
76128;BME280;64873;50.102;14.434;2023-05-07T12:35:37;99855.75;;;14.48;55.76
76128;BME280;64873;50.102;14.434;2023-05-07T12:38:07;99843.19;;;14.24;56.05
76128;BME280;64873;50.102;14.434;2023-05-07T12:40:37;99838.25;;;14.69;55.05
76128;BME280;64873;50.102;14.434;2023-05-07T12:43:03;99841.53;;;14.71;54.95
76128;BME280;64873;50.102;14.434;2023-05-07T12:45:28;99845.50;;;14.69;54.61
76128;BME280;64873;50.102;14.434;2023-05-07T12:48:01;99841.66;;;14.76;54.51
76128;BME280;64873;50.102;14.434;2023-05-07T12:50:31;99842.34;;;15.13;53.40
76128;BME280;64873;50.102;14.434;2023-05-07T12:52:58;99836.59;;;15.45;52.52
76128;BME280;64873;50.102;14.434;2023-05-07T12:55:23;99838.81;;;15.01;53.36
76128;BME280;64873;50.102;14.434;2023-05-07T12:57:49;99843.22;;;14.84;53.58
76128;BME280;64873;50.102;14.434;2023-05-07T13:00:31;99840.56;;;15.07;52.54
76128;BME280;64873;50.102;14.434;2023-05-07T13:02:58;99835.91;;;15.26;52.32
76128;BME280;64873;50.102;14.434;2023-05-07T13:05:24;99837.75;;;15.02;52.78